Latest Weather Observations for Mulurulu

IDN60801

Issued at 5:03 pm EDT Saturday 18 November 2017 (issued every 30 minutes, with the page automatically refreshed every 10 minutes)

About weather observations | Map of weather stations | Latest weather observations for NSW | Other Formats
Station Details ID: 047113 Name: MULURULU AWS Lat: -33.34 Lon: 143.40 Height: 78.0 m
Data from the previous 72 hours. | See also: Recent months for locations in New South Wales
Date/Time
EDT
Temp
°C
App
Temp
°C
Dew
Point
°C
Rel
Hum
%
Delta-T
°C
Wind Press
QNH
hPa
Press
MSL
hPa
Rain since
9am
mm
Dir  Spd
km/h
Gust
km/h
Spd
kts
Gust
kts
18/05:00pm 27.8 - 6.0 25 11.4 - - - - - - - 0.0
18/04:30pm 28.5 - 6.0 24 11.8 - - - - - - - 0.0
18/04:00pm 29.4 - 6.1 23 12.3 - - - - - - - 0.0
18/03:30pm 28.8 - 6.2 24 12.0 - - - - - - - 0.0
18/03:00pm 27.9 - 6.1 25 11.5 - - - - - - - 0.0
18/02:30pm 28.5 - 6.0 24 11.8 - - - - - - - 0.0
18/02:00pm 27.8 - 6.6 26 11.2 - - - - - - - 0.0
18/01:30pm 27.8 - 6.6 26 11.2 - - - - - - - 0.0
18/01:00pm 27.1 - 7.0 28 10.7 - - - - - - - 0.0
18/12:30pm 26.5 - 8.0 31 10.0 - - - - - - - 0.0
18/12:00pm 26.1 - 8.1 32 9.7 - - - - - - - 0.0
18/11:30am 25.9 - 8.8 34 9.3 - - - - - - - 0.0
18/11:00am 25.0 - 8.5 35 8.9 - - - - - - - 0.0
18/10:30am 23.2 - 8.5 39 7.8 - - - - - - - 0.0
18/10:00am 22.9 - 9.0 41 7.5 - - - - - - - 0.0
18/09:30am 21.7 - 10.2 48 6.3 - - - - - - - 0.0
18/09:00am 20.8 - 9.7 49 6.0 - - - - - - - 0.0
18/08:30am 19.1 - 9.9 55 4.9 - - - - - - - 0.0
18/08:00am 17.3 - 10.2 63 3.8 - - - - - - - 0.0
18/07:30am 15.8 - 10.8 72 2.7 - - - - - - - 0.0
18/07:00am 13.5 - 10.1 80 1.8 - - - - - - - 0.0
18/06:30am 12.7 - 9.9 83 1.4 - - - - - - - 0.0
18/06:00am 12.9 - 10.1 83 1.4 - - - - - - - 0.0
18/05:30am 12.9 - 10.3 84 1.3 - - - - - - - 0.0
18/05:00am 13.5 - 10.3 81 1.7 - - - - - - - 0.0
18/04:30am 14.0 - 10.4 79 1.9 - - - - - - - 0.0
18/04:00am 14.5 - 9.7 73 2.5 - - - - - - - 0.0
18/03:30am 15.2 - 9.8 70 2.8 - - - - - - - 0.0
18/03:00am 15.4 - 10.0 70 2.8 - - - - - - - 0.0
18/02:30am 14.8 - 10.4 75 2.3 - - - - - - - 0.0
18/02:00am 15.6 - 10.4 71 2.7 - - - - - - - 0.0
18/01:30am 16.1 - 10.4 69 3.0 - - - - - - - 0.0
18/01:00am 16.8 - 10.0 64 3.6 - - - - - - - 0.0
18/12:30am 17.6 - 9.8 60 4.1 - - - - - - - 0.0
18/12:00am 18.4 - 9.5 56 4.7 - - - - - - - 0.0
 
Date/Time
EDT
Temp
°C
App
Temp
°C
Dew
Point
°C
Rel
Hum
%
Delta-T
°C
Wind Press
QNH
hPa
Press
MSL
hPa
Rain since
9am
mm
Dir  Spd
km/h
Gust
km/h
Spd
kts
Gust
kts
17/11:30pm 19.0 - 8.6 51 5.4 - - - - - - - 0.0
17/11:00pm 19.3 - 8.6 50 5.6 - - - - - - - 0.0
17/10:30pm 19.4 - 8.4 49 5.7 - - - - - - - 0.0
17/10:00pm 19.4 - 8.1 48 5.8 - - - - - - - 0.0
17/09:30pm 19.6 - 8.3 48 5.9 - - - - - - - 0.0
17/09:00pm 20.0 - 8.0 46 6.2 - - - - - - - 0.0
17/08:30pm 20.7 - 8.0 44 6.6 - - - - - - - 0.0
17/08:00pm 21.6 - 7.4 40 7.4 - - - - - - - 0.0
17/07:30pm 22.8 - 7.4 37 8.0 - - - - - - - 0.0
17/07:00pm 24.2 - 6.9 33 9.0 - - - - - - - 0.0
17/06:30pm 26.0 - 3.9 24 11.0 - - - - - - - 0.0
17/06:00pm 25.7 - 3.6 24 11.0 - - - - - - - 0.0
17/05:30pm 25.8 - 4.9 26 10.6 - - - - - - - 0.0
17/05:00pm 26.2 - 4.6 25 10.9 - - - - - - - 0.0
17/04:30pm 25.3 - 4.4 26 10.5 - - - - - - - 0.0
17/04:00pm 26.0 - 5.6 27 10.5 - - - - - - - 0.0
17/03:30pm 25.4 - 6.1 29 10.0 - - - - - - - 0.0
17/03:00pm 24.6 - 6.4 31 9.4 - - - - - - - 0.0
17/02:30pm 24.5 - 7.6 34 8.9 - - - - - - - 0.0
17/02:00pm 23.9 - 7.9 36 8.5 - - - - - - - 0.0
17/01:30pm 24.0 - 6.7 33 9.0 - - - - - - - 0.0
17/01:00pm 22.3 - 9.5 44 6.9 - - - - - - - 0.0
17/12:30pm 20.8 - 9.4 48 6.1 - - - - - - - 0.0
17/12:00pm 20.5 - 9.4 49 5.9 - - - - - - - 0.0
17/11:30am 20.2 - 9.5 50 5.7 - - - - - - - 0.0
17/11:00am 18.8 - 9.0 53 5.1 - - - - - - - 0.0
17/10:30am 18.5 - 9.8 57 4.6 - - - - - - - 0.0
17/10:00am 18.0 - 8.8 55 4.8 - - - - - - - 0.0
17/09:30am 16.8 - 9.5 62 3.8 - - - - - - - 0.0
17/09:00am 16.0 - 10.1 68 3.1 - - - - - - - 0.2
17/08:30am 14.4 - 10.4 77 2.1 - - - - - - - 0.2
17/08:00am 13.7 - 10.7 82 1.6 - - - - - - - 0.2
17/07:30am 12.6 - 10.8 89 0.9 - - - - - - - 0.2
17/07:00am 11.5 - 11.0 97 0.3 - - - - - - - 0.2
17/06:30am 10.6 - 10.0 96 0.3 - - - - - - - 0.2
17/06:00am 11.1 - 10.5 96 0.3 - - - - - - - 0.2
17/05:30am 11.2 - 10.4 95 0.4 - - - - - - - 0.2
17/05:00am 11.5 - 10.4 93 0.6 - - - - - - - 0.2
17/04:30am 11.9 - 10.5 91 0.7 - - - - - - - 0.2
17/04:00am 12.7 - 10.8 88 1.0 - - - - - - - 0.2
17/03:30am 13.2 - 11.1 87 1.1 - - - - - - - 0.2
17/03:00am 13.4 - 11.1 86 1.2 - - - - - - - 0.2
17/02:30am 13.6 - 11.1 85 1.3 - - - - - - - 0.2
17/02:00am 14.0 - 11.2 83 1.5 - - - - - - - 0.2
17/01:30am 14.5 - 11.5 82 1.6 - - - - - - - 0.2
17/01:00am 15.0 - 11.6 80 1.8 - - - - - - - 0.2
17/12:30am 15.8 - 11.8 77 2.2 - - - - - - - 0.2
17/12:00am 16.5 - 12.3 76 2.3 - - - - - - - 0.2
 
Date/Time
EDT
Temp
°C
App
Temp
°C
Dew
Point
°C
Rel
Hum
%
Delta-T
°C
Wind Press
QNH
hPa
Press
MSL
hPa
Rain since
9am
mm
Dir  Spd
km/h
Gust
km/h
Spd
kts
Gust
kts
16/11:30pm 17.3 - 12.6 74 2.6 - - - - - - - 0.2
16/11:00pm 15.2 - 13.7 91 0.8 - - - - - - - 0.2
16/10:30pm 15.2 - 13.6 90 0.9 - - - - - - - 0.2
16/10:00pm 15.5 - 13.5 88 1.1 - - - - - - - 0.2
16/09:30pm 16.3 - 13.2 82 1.7 - - - - - - - 0.2
16/09:00pm 17.6 - 13.1 75 2.5 - - - - - - - 0.2
16/08:30pm 18.6 - 12.8 69 3.3 - - - - - - - 0.2
16/08:00pm 19.6 - 12.8 65 3.8 - - - - - - - 0.2
16/07:30pm 20.2 - 12.4 61 4.4 - - - - - - - 0.2
16/07:00pm 20.6 - 12.6 60 4.5 - - - - - - - 0.2
16/06:30pm 20.8 - 12.8 60 4.6 - - - - - - - 0.2
16/06:00pm 20.6 - 12.8 61 4.4 - - - - - - - 0.2
16/05:30pm 19.6 - 13.1 66 3.7 - - - - - - - 0.2
16/05:00pm 19.6 - 13.1 66 3.7 - - - - - - - 0.2
16/04:30pm 19.5 - 13.2 67 3.6 - - - - - - - 0.2
16/04:00pm 19.9 - 12.7 63 4.1 - - - - - - - 0.2
16/03:30pm 20.5 - 12.7 61 4.4 - - - - - - - 0.2
16/03:00pm 20.4 - 13.1 63 4.2 - - - - - - - 0.2
16/02:30pm 20.1 - 13.1 64 4.0 - - - - - - - 0.2
16/02:00pm 20.7 - 12.9 61 4.4 - - - - - - - 0.2
16/01:30pm 20.2 - 13.2 64 4.0 - - - - - - - 0.2
16/01:00pm 20.0 - 13.7 67 3.6 - - - - - - - 0.2
16/12:30pm 19.9 - 13.6 67 3.6 - - - - - - - 0.2
16/12:00pm 19.6 - 14.2 71 3.1 - - - - - - - 0.2
16/11:30am 19.7 - 14.9 74 2.8 - - - - - - - 0.2
16/11:00am 18.4 - 15.6 84 1.7 - - - - - - - 0.2
16/10:30am 18.4 - 14.5 78 2.3 - - - - - - - 0.0
16/10:00am 17.6 - 13.9 79 2.1 - - - - - - - 0.0
16/09:30am 17.4 - 14.1 81 1.9 - - - - - - - 0.0
16/09:00am 16.5 - 13.6 83 1.6 - - - - - - - -
16/08:30am 16.4 - 13.9 85 1.4 - - - - - - - -
16/08:00am 16.1 - 14.1 88 1.1 - - - - - - - -
16/07:30am 16.0 - 14.0 88 1.1 - - - - - - - -
16/07:00am 15.8 - 14.0 89 1.0 - - - - - - - -
16/06:30am 15.7 - 14.1 90 0.9 - - - - - - - -
16/06:00am 15.7 - 14.4 92 0.7 - - - - - - - -
16/05:30am 15.4 - 14.8 96 0.3 - - - - - - - -
16/05:00am 16.1 - 15.3 95 0.5 - - - - - - - -
16/04:30am 16.4 - 15.4 94 0.6 - - - - - - - -
16/04:00am 16.4 - 15.6 95 0.5 - - - - - - - -
16/03:30am 16.9 - 16.1 95 0.5 - - - - - - - -
16/03:00am 18.0 - 17.0 94 0.6 - - - - - - - -
16/02:30am 18.4 - 17.9 97 0.3 - - - - - - - -
16/02:00am 18.1 - 17.5 96 0.4 - - - - - - - -
16/01:30am 18.0 - 17.0 94 0.6 - - - - - - - -
16/01:00am 18.1 - 17.0 93 0.7 - - - - - - - -
16/12:30am 19.1 - 16.3 84 1.7 - - - - - - - -
16/12:00am 19.1 - 16.1 83 1.8 - - - - - - - -
 
Date/Time
EDT
Temp
°C
App
Temp
°C
Dew
Point
°C
Rel
Hum
%
Delta-T
°C
Wind Press
QNH
hPa
Press
MSL
hPa
Rain since
9am
mm
Dir  Spd
km/h
Gust
km/h
Spd
kts
Gust
kts
15/11:30pm 19.9 - 16.0 78 2.3 - - - - - - - -
15/11:00pm 19.7 - 16.3 81 2.0 - - - - - - - -
15/10:30pm 19.4 - 16.4 83 1.8 - - - - - - - -
15/10:00pm 19.1 - 16.3 84 1.7 - - - - - - - -
15/09:30pm 18.6 - 16.4 87 1.3 - - - - - - - -
15/09:00pm 18.2 - 16.2 88 1.2 - - - - - - - -
15/08:30pm 18.2 - 16.0 87 1.3 - - - - - - - -
15/08:00pm 17.9 - 16.6 92 0.8 - - - - - - - -
15/07:30pm 18.4 - 16.7 90 1.0 - - - - - - - -
15/07:00pm 19.1 - 16.3 84 1.7 - - - - - - - -
15/06:30pm 21.0 - 14.6 67 3.8 - - - - - - - -
15/06:00pm 25.0 - 13.2 48 6.9 - - - - - - - -
15/05:30pm 25.7 - 13.9 48 7.0 - - - - - - - -

Other Formats:

Comma delimited format used in spreadsheet applications
http://www.bom.gov.au/fwo/IDN60801/IDN60801.94797.axf

JavaScript Object Notation format (JSON) in row-major order
http://www.bom.gov.au/fwo/IDN60801/IDN60801.94797.json